sensor_id;sensor_type;location;lat;lon;timestamp;P1;durP1;ratioP1;P2;durP2;ratioP2
7171;SDS011;3627;46.544;14.944;2022-08-25T00:01:33;5.78;;;5.10;;
7171;SDS011;3627;46.544;14.944;2022-08-25T00:04:00;6.68;;;5.30;;
7171;SDS011;3627;46.544;14.944;2022-08-25T00:06:27;6.78;;;5.15;;
7171;SDS011;3627;46.544;14.944;2022-08-25T00:08:55;6.45;;;5.28;;
7171;SDS011;3627;46.544;14.944;2022-08-25T00:11:24;7.32;;;5.75;;
7171;SDS011;3627;46.544;14.944;2022-08-25T00:13:52;6.05;;;5.32;;
7171;SDS011;3627;46.544;14.944;2022-08-25T00:16:19;6.70;;;5.28;;
7171;SDS011;3627;46.544;14.944;2022-08-25T00:18:47;10.43;;;6.03;;
7171;SDS011;3627;46.544;14.944;2022-08-25T00:21:14;5.93;;;5.43;;
7171;SDS011;3627;46.544;14.944;2022-08-25T00:23:41;5.72;;;5.15;;
7171;SDS011;3627;46.544;14.944;2022-08-25T00:26:09;7.25;;;5.90;;
7171;SDS011;3627;46.544;14.944;2022-08-25T00:28:36;7.72;;;5.70;;
7171;SDS011;3627;46.544;14.944;2022-08-25T00:31:04;7.82;;;5.63;;
7171;SDS011;3627;46.544;14.944;2022-08-25T00:33:31;6.43;;;5.43;;
7171;SDS011;3627;46.544;14.944;2022-08-25T00:35:57;6.35;;;5.55;;
7171;SDS011;3627;46.544;14.944;2022-08-25T00:38:25;8.57;;;5.80;;
7171;SDS011;3627;46.544;14.944;2022-08-25T00:40:52;7.38;;;5.85;;
7171;SDS011;3627;46.544;14.944;2022-08-25T00:43:34;6.53;;;5.43;;
7171;SDS011;3627;46.544;14.944;2022-08-25T00:46:02;6.43;;;5.45;;
7171;SDS011;3627;46.544;14.944;2022-08-25T00:48:28;6.78;;;6.05;;
7171;SDS011;3627;46.544;14.944;2022-08-25T00:50:55;8.18;;;5.43;;
7171;SDS011;3627;46.544;14.944;2022-08-25T00:53:21;6.80;;;5.68;;
7171;SDS011;3627;46.544;14.944;2022-08-25T00:55:48;7.10;;;5.72;;
7171;SDS011;3627;46.544;14.944;2022-08-25T00:58:15;7.85;;;6.18;;
7171;SDS011;3627;46.544;14.944;2022-08-25T01:00:45;7.03;;;5.88;;
7171;SDS011;3627;46.544;14.944;2022-08-25T01:03:12;9.02;;;6.35;;
7171;SDS011;3627;46.544;14.944;2022-08-25T01:05:39;8.38;;;6.13;;
7171;SDS011;3627;46.544;14.944;2022-08-25T01:08:05;6.75;;;6.15;;
7171;SDS011;3627;46.544;14.944;2022-08-25T01:10:33;7.97;;;5.88;;
7171;SDS011;3627;46.544;14.944;2022-08-25T01:13:00;7.18;;;5.55;;
7171;SDS011;3627;46.544;14.944;2022-08-25T01:15:28;8.90;;;5.93;;
7171;SDS011;3627;46.544;14.944;2022-08-25T01:17:57;9.63;;;6.32;;
7171;SDS011;3627;46.544;14.944;2022-08-25T01:20:25;9.18;;;6.88;;
7171;SDS011;3627;46.544;14.944;2022-08-25T01:22:53;9.90;;;6.70;;
7171;SDS011;3627;46.544;14.944;2022-08-25T01:25:22;7.63;;;6.07;;
7171;SDS011;3627;46.544;14.944;2022-08-25T01:27:52;7.30;;;5.95;;
7171;SDS011;3627;46.544;14.944;2022-08-25T01:30:18;8.27;;;7.07;;
7171;SDS011;3627;46.544;14.944;2022-08-25T01:32:45;8.48;;;7.22;;
7171;SDS011;3627;46.544;14.944;2022-08-25T01:35:13;9.50;;;7.50;;
7171;SDS011;3627;46.544;14.944;2022-08-25T01:37:39;11.85;;;7.32;;
7171;SDS011;3627;46.544;14.944;2022-08-25T01:40:08;8.95;;;7.10;;
7171;SDS011;3627;46.544;14.944;2022-08-25T01:42:37;8.52;;;6.90;;
7171;SDS011;3627;46.544;14.944;2022-08-25T01:45:07;8.90;;;6.40;;
7171;SDS011;3627;46.544;14.944;2022-08-25T01:47:34;8.85;;;7.65;;
7171;SDS011;3627;46.544;14.944;2022-08-25T01:50:00;10.05;;;7.47;;
7171;SDS011;3627;46.544;14.944;2022-08-25T01:52:27;11.45;;;7.90;;
7171;SDS011;3627;46.544;14.944;2022-08-25T01:54:54;10.05;;;7.68;;
7171;SDS011;3627;46.544;14.944;2022-08-25T01:57:22;13.05;;;8.27;;
7171;SDS011;3627;46.544;14.944;2022-08-25T01:59:48;11.77;;;8.35;;
7171;SDS011;3627;46.544;14.944;2022-08-25T02:02:15;12.45;;;8.27;;
7171;SDS011;3627;46.544;14.944;2022-08-25T02:04:41;10.90;;;8.02;;
7171;SDS011;3627;46.544;14.944;2022-08-25T02:07:08;12.07;;;8.45;;
7171;SDS011;3627;46.544;14.944;2022-08-25T02:09:34;12.55;;;9.32;;
7171;SDS011;3627;46.544;14.944;2022-08-25T02:12:01;15.07;;;9.35;;
7171;SDS011;3627;46.544;14.944;2022-08-25T02:14:29;11.35;;;8.20;;
7171;SDS011;3627;46.544;14.944;2022-08-25T02:16:56;11.02;;;8.60;;
7171;SDS011;3627;46.544;14.944;2022-08-25T02:19:22;10.63;;;8.38;;
7171;SDS011;3627;46.544;14.944;2022-08-25T02:21:49;11.13;;;8.13;;
7171;SDS011;3627;46.544;14.944;2022-08-25T02:24:16;10.77;;;9.18;;
7171;SDS011;3627;46.544;14.944;2022-08-25T02:26:43;10.85;;;8.30;;
7171;SDS011;3627;46.544;14.944;2022-08-25T02:29:09;12.95;;;9.23;;
7171;SDS011;3627;46.544;14.944;2022-08-25T02:31:37;14.00;;;9.73;;
7171;SDS011;3627;46.544;14.944;2022-08-25T02:34:03;14.55;;;9.27;;
7171;SDS011;3627;46.544;14.944;2022-08-25T02:36:30;10.63;;;8.10;;
7171;SDS011;3627;46.544;14.944;2022-08-25T02:38:57;9.05;;;7.43;;
7171;SDS011;3627;46.544;14.944;2022-08-25T02:41:24;10.07;;;7.15;;
7171;SDS011;3627;46.544;14.944;2022-08-25T02:43:51;9.25;;;7.45;;
7171;SDS011;3627;46.544;14.944;2022-08-25T02:46:19;8.50;;;6.88;;
7171;SDS011;3627;46.544;14.944;2022-08-25T02:48:47;8.85;;;7.32;;
7171;SDS011;3627;46.544;14.944;2022-08-25T02:51:15;10.00;;;8.00;;
7171;SDS011;3627;46.544;14.944;2022-08-25T02:53:42;9.73;;;7.53;;
7171;SDS011;3627;46.544;14.944;2022-08-25T02:56:10;11.95;;;8.68;;
7171;SDS011;3627;46.544;14.944;2022-08-25T02:58:38;11.15;;;8.93;;
7171;SDS011;3627;46.544;14.944;2022-08-25T03:01:05;12.73;;;8.60;;
7171;SDS011;3627;46.544;14.944;2022-08-25T03:03:32;11.20;;;7.68;;
7171;SDS011;3627;46.544;14.944;2022-08-25T03:05:59;11.88;;;8.30;;
7171;SDS011;3627;46.544;14.944;2022-08-25T03:08:26;10.48;;;8.13;;
7171;SDS011;3627;46.544;14.944;2022-08-25T03:10:52;11.55;;;8.85;;
7171;SDS011;3627;46.544;14.944;2022-08-25T03:13:19;11.27;;;9.02;;
7171;SDS011;3627;46.544;14.944;2022-08-25T03:15:45;13.32;;;9.02;;
7171;SDS011;3627;46.544;14.944;2022-08-25T03:18:11;10.18;;;8.25;;
7171;SDS011;3627;46.544;14.944;2022-08-25T03:20:38;12.43;;;8.25;;
7171;SDS011;3627;46.544;14.944;2022-08-25T03:23:06;10.38;;;8.27;;
7171;SDS011;3627;46.544;14.944;2022-08-25T03:25:33;10.18;;;8.18;;
7171;SDS011;3627;46.544;14.944;2022-08-25T03:28:16;12.32;;;8.30;;
7171;SDS011;3627;46.544;14.944;2022-08-25T03:30:43;10.48;;;8.77;;
7171;SDS011;3627;46.544;14.944;2022-08-25T03:33:09;11.93;;;8.57;;
7171;SDS011;3627;46.544;14.944;2022-08-25T03:35:36;12.15;;;8.40;;
7171;SDS011;3627;46.544;14.944;2022-08-25T03:38:03;14.05;;;9.20;;
7171;SDS011;3627;46.544;14.944;2022-08-25T03:40:31;14.70;;;9.25;;
7171;SDS011;3627;46.544;14.944;2022-08-25T03:42:57;10.95;;;8.48;;
7171;SDS011;3627;46.544;14.944;2022-08-25T03:45:24;10.95;;;8.55;;
7171;SDS011;3627;46.544;14.944;2022-08-25T03:47:51;10.48;;;8.98;;
7171;SDS011;3627;46.544;14.944;2022-08-25T03:50:18;12.68;;;9.48;;
7171;SDS011;3627;46.544;14.944;2022-08-25T03:52:48;11.30;;;8.32;;
7171;SDS011;3627;46.544;14.944;2022-08-25T03:55:15;10.27;;;8.10;;
7171;SDS011;3627;46.544;14.944;2022-08-25T03:57:43;11.77;;;8.43;;
7171;SDS011;3627;46.544;14.944;2022-08-25T04:00:10;12.65;;;7.93;;
7171;SDS011;3627;46.544;14.944;2022-08-25T04:02:37;10.20;;;8.35;;
7171;SDS011;3627;46.544;14.944;2022-08-25T04:05:03;9.40;;;8.02;;
7171;SDS011;3627;46.544;14.944;2022-08-25T04:07:30;12.43;;;8.30;;
7171;SDS011;3627;46.544;14.944;2022-08-25T04:09:56;9.50;;;7.63;;
7171;SDS011;3627;46.544;14.944;2022-08-25T04:12:23;8.63;;;7.15;;
7171;SDS011;3627;46.544;14.944;2022-08-25T04:14:51;10.50;;;8.20;;
7171;SDS011;3627;46.544;14.944;2022-08-25T04:17:17;12.18;;;8.45;;
7171;SDS011;3627;46.544;14.944;2022-08-25T04:19:43;7.50;;;6.72;;
7171;SDS011;3627;46.544;14.944;2022-08-25T04:22:10;10.23;;;8.07;;
7171;SDS011;3627;46.544;14.944;2022-08-25T04:24:36;11.95;;;8.18;;
7171;SDS011;3627;46.544;14.944;2022-08-25T04:27:03;11.25;;;7.97;;
7171;SDS011;3627;46.544;14.944;2022-08-25T04:29:29;7.20;;;6.47;;
7171;SDS011;3627;46.544;14.944;2022-08-25T04:31:57;10.68;;;7.25;;
7171;SDS011;3627;46.544;14.944;2022-08-25T04:34:25;10.20;;;7.03;;
7171;SDS011;3627;46.544;14.944;2022-08-25T04:36:52;10.50;;;7.25;;
7171;SDS011;3627;46.544;14.944;2022-08-25T04:39:18;8.35;;;7.32;;
7171;SDS011;3627;46.544;14.944;2022-08-25T04:41:45;13.48;;;7.57;;
7171;SDS011;3627;46.544;14.944;2022-08-25T04:44:11;8.23;;;6.85;;
7171;SDS011;3627;46.544;14.944;2022-08-25T04:46:38;8.40;;;7.20;;
7171;SDS011;3627;46.544;14.944;2022-08-25T04:49:05;9.30;;;6.72;;
7171;SDS011;3627;46.544;14.944;2022-08-25T04:51:33;9.35;;;6.80;;
7171;SDS011;3627;46.544;14.944;2022-08-25T04:54:00;8.25;;;6.53;;
7171;SDS011;3627;46.544;14.944;2022-08-25T04:56:28;9.70;;;6.82;;
7171;SDS011;3627;46.544;14.944;2022-08-25T04:59:00;7.90;;;6.72;;
7171;SDS011;3627;46.544;14.944;2022-08-25T05:01:26;10.45;;;7.38;;
7171;SDS011;3627;46.544;14.944;2022-08-25T05:03:53;7.97;;;7.18;;
7171;SDS011;3627;46.544;14.944;2022-08-25T05:06:21;10.45;;;7.65;;
7171;SDS011;3627;46.544;14.944;2022-08-25T05:08:48;8.23;;;6.63;;
7171;SDS011;3627;46.544;14.944;2022-08-25T05:11:15;8.45;;;6.75;;
7171;SDS011;3627;46.544;14.944;2022-08-25T05:13:43;6.40;;;5.70;;
7171;SDS011;3627;46.544;14.944;2022-08-25T05:16:10;6.88;;;6.00;;
7171;SDS011;3627;46.544;14.944;2022-08-25T05:18:36;8.68;;;6.60;;
7171;SDS011;3627;46.544;14.944;2022-08-25T05:21:06;9.05;;;7.25;;
7171;SDS011;3627;46.544;14.944;2022-08-25T05:23:34;9.13;;;6.93;;
7171;SDS011;3627;46.544;14.944;2022-08-25T05:26:02;7.97;;;7.00;;
7171;SDS011;3627;46.544;14.944;2022-08-25T05:28:28;8.90;;;6.95;;
7171;SDS011;3627;46.544;14.944;2022-08-25T05:30:56;8.02;;;6.38;;
7171;SDS011;3627;46.544;14.944;2022-08-25T05:33:23;10.15;;;6.78;;
7171;SDS011;3627;46.544;14.944;2022-08-25T05:35:49;9.13;;;6.38;;
7171;SDS011;3627;46.544;14.944;2022-08-25T05:38:15;8.32;;;6.32;;
7171;SDS011;3627;46.544;14.944;2022-08-25T05:40:43;7.30;;;6.25;;
7171;SDS011;3627;46.544;14.944;2022-08-25T05:43:10;8.15;;;5.50;;
7171;SDS011;3627;46.544;14.944;2022-08-25T05:45:38;9.50;;;6.75;;
7171;SDS011;3627;46.544;14.944;2022-08-25T05:48:05;7.05;;;6.18;;
7171;SDS011;3627;46.544;14.944;2022-08-25T05:50:31;7.28;;;6.50;;
7171;SDS011;3627;46.544;14.944;2022-08-25T05:52:58;7.15;;;5.50;;
7171;SDS011;3627;46.544;14.944;2022-08-25T05:55:24;6.88;;;5.40;;
7171;SDS011;3627;46.544;14.944;2022-08-25T05:57:52;7.38;;;6.07;;
7171;SDS011;3627;46.544;14.944;2022-08-25T06:00:18;8.40;;;6.28;;
7171;SDS011;3627;46.544;14.944;2022-08-25T06:02:45;7.22;;;6.30;;
7171;SDS011;3627;46.544;14.944;2022-08-25T06:05:13;8.95;;;6.25;;
7171;SDS011;3627;46.544;14.944;2022-08-25T06:07:40;9.30;;;6.40;;
7171;SDS011;3627;46.544;14.944;2022-08-25T06:10:07;9.13;;;6.40;;
7171;SDS011;3627;46.544;14.944;2022-08-25T06:12:35;9.25;;;6.03;;
7171;SDS011;3627;46.544;14.944;2022-08-25T06:15:04;8.48;;;6.47;;
7171;SDS011;3627;46.544;14.944;2022-08-25T06:17:30;13.23;;;7.05;;
7171;SDS011;3627;46.544;14.944;2022-08-25T06:19:57;9.82;;;5.78;;
7171;SDS011;3627;46.544;14.944;2022-08-25T06:22:24;7.78;;;5.68;;
7171;SDS011;3627;46.544;14.944;2022-08-25T06:24:51;13.48;;;6.60;;
7171;SDS011;3627;46.544;14.944;2022-08-25T06:27:17;9.57;;;6.88;;
7171;SDS011;3627;46.544;14.944;2022-08-25T06:29:44;12.88;;;6.55;;
7171;SDS011;3627;46.544;14.944;2022-08-25T06:32:11;8.95;;;6.07;;
7171;SDS011;3627;46.544;14.944;2022-08-25T06:34:38;9.10;;;6.30;;
7171;SDS011;3627;46.544;14.944;2022-08-25T06:37:04;6.47;;;5.28;;
7171;SDS011;3627;46.544;14.944;2022-08-25T06:39:31;5.90;;;5.30;;
7171;SDS011;3627;46.544;14.944;2022-08-25T06:41:57;6.40;;;4.85;;
7171;SDS011;3627;46.544;14.944;2022-08-25T06:44:24;5.75;;;4.95;;
7171;SDS011;3627;46.544;14.944;2022-08-25T06:46:51;6.03;;;5.25;;
7171;SDS011;3627;46.544;14.944;2022-08-25T06:49:19;7.22;;;4.65;;
7171;SDS011;3627;46.544;14.944;2022-08-25T06:51:46;7.97;;;5.38;;
7171;SDS011;3627;46.544;14.944;2022-08-25T06:54:13;5.70;;;5.20;;
7171;SDS011;3627;46.544;14.944;2022-08-25T06:56:40;6.65;;;5.38;;
7171;SDS011;3627;46.544;14.944;2022-08-25T06:59:07;7.65;;;4.75;;
7171;SDS011;3627;46.544;14.944;2022-08-25T07:01:34;7.50;;;4.72;;
7171;SDS011;3627;46.544;14.944;2022-08-25T07:04:02;9.07;;;4.97;;
7171;SDS011;3627;46.544;14.944;2022-08-25T07:06:31;6.32;;;4.70;;
7171;SDS011;3627;46.544;14.944;2022-08-25T07:08:59;7.10;;;5.07;;
7171;SDS011;3627;46.544;14.944;2022-08-25T07:11:26;6.80;;;4.90;;
7171;SDS011;3627;46.544;14.944;2022-08-25T07:13:53;6.72;;;4.70;;
7171;SDS011;3627;46.544;14.944;2022-08-25T07:16:19;5.75;;;5.15;;
7171;SDS011;3627;46.544;14.944;2022-08-25T07:18:46;6.50;;;4.53;;
7171;SDS011;3627;46.544;14.944;2022-08-25T07:21:13;7.70;;;4.63;;
7171;SDS011;3627;46.544;14.944;2022-08-25T07:23:41;6.18;;;4.68;;
7171;SDS011;3627;46.544;14.944;2022-08-25T07:26:08;4.53;;;3.97;;
7171;SDS011;3627;46.544;14.944;2022-08-25T07:28:35;6.53;;;4.53;;
7171;SDS011;3627;46.544;14.944;2022-08-25T07:31:02;4.25;;;3.83;;
7171;SDS011;3627;46.544;14.944;2022-08-25T07:33:29;7.13;;;4.50;;
7171;SDS011;3627;46.544;14.944;2022-08-25T07:35:55;4.13;;;3.83;;
7171;SDS011;3627;46.544;14.944;2022-08-25T07:38:21;5.88;;;4.22;;
7171;SDS011;3627;46.544;14.944;2022-08-25T07:40:49;7.68;;;4.30;;
7171;SDS011;3627;46.544;14.944;2022-08-25T07:43:19;4.32;;;4.03;;
7171;SDS011;3627;46.544;14.944;2022-08-25T07:45:45;8.40;;;4.15;;
7171;SDS011;3627;46.544;14.944;2022-08-25T07:48:12;6.18;;;4.03;;
7171;SDS011;3627;46.544;14.944;2022-08-25T07:50:39;4.63;;;4.10;;
7171;SDS011;3627;46.544;14.944;2022-08-25T07:53:07;6.50;;;4.20;;
7171;SDS011;3627;46.544;14.944;2022-08-25T07:55:34;4.90;;;4.13;;
7171;SDS011;3627;46.544;14.944;2022-08-25T07:58:02;5.03;;;4.53;;
7171;SDS011;3627;46.544;14.944;2022-08-25T08:00:29;5.30;;;4.10;;
7171;SDS011;3627;46.544;14.944;2022-08-25T08:02:57;4.65;;;4.00;;
7171;SDS011;3627;46.544;14.944;2022-08-25T08:05:24;4.45;;;3.80;;
7171;SDS011;3627;46.544;14.944;2022-08-25T08:07:50;4.47;;;3.75;;
7171;SDS011;3627;46.544;14.944;2022-08-25T08:10:17;4.45;;;4.05;;
7171;SDS011;3627;46.544;14.944;2022-08-25T08:12:43;4.82;;;4.43;;
7171;SDS011;3627;46.544;14.944;2022-08-25T08:15:11;4.25;;;3.85;;
7171;SDS011;3627;46.544;14.944;2022-08-25T08:17:38;4.40;;;4.00;;
7171;SDS011;3627;46.544;14.944;2022-08-25T08:20:05;4.75;;;3.92;;
7171;SDS011;3627;46.544;14.944;2022-08-25T08:22:32;4.50;;;4.10;;
7171;SDS011;3627;46.544;14.944;2022-08-25T08:24:59;4.15;;;3.75;;
7171;SDS011;3627;46.544;14.944;2022-08-25T08:27:25;4.68;;;3.80;;
7171;SDS011;3627;46.544;14.944;2022-08-25T08:29:52;5.93;;;4.15;;
7171;SDS011;3627;46.544;14.944;2022-08-25T08:32:20;5.15;;;4.05;;
7171;SDS011;3627;46.544;14.944;2022-08-25T08:34:46;4.50;;;4.10;;
7171;SDS011;3627;46.544;14.944;2022-08-25T08:37:13;6.15;;;4.10;;
7171;SDS011;3627;46.544;14.944;2022-08-25T08:39:40;5.03;;;4.10;;
7171;SDS011;3627;46.544;14.944;2022-08-25T08:42:11;5.28;;;3.97;;
7171;SDS011;3627;46.544;14.944;2022-08-25T08:44:43;5.13;;;4.18;;
7171;SDS011;3627;46.544;14.944;2022-08-25T08:47:14;6.00;;;4.28;;
7171;SDS011;3627;46.544;14.944;2022-08-25T08:49:47;4.70;;;4.30;;
7171;SDS011;3627;46.544;14.944;2022-08-25T08:52:15;4.82;;;4.43;;
7171;SDS011;3627;46.544;14.944;2022-08-25T08:54:42;5.90;;;4.32;;
7171;SDS011;3627;46.544;14.944;2022-08-25T08:57:11;6.95;;;4.60;;
7171;SDS011;3627;46.544;14.944;2022-08-25T08:59:42;5.68;;;4.50;;
7171;SDS011;3627;46.544;14.944;2022-08-25T09:02:12;6.07;;;4.40;;
7171;SDS011;3627;46.544;14.944;2022-08-25T09:04:40;4.78;;;4.38;;
7171;SDS011;3627;46.544;14.944;2022-08-25T09:07:10;5.75;;;4.35;;
7171;SDS011;3627;46.544;14.944;2022-08-25T09:09:39;5.88;;;4.55;;
7171;SDS011;3627;46.544;14.944;2022-08-25T09:12:08;5.43;;;4.68;;
7171;SDS011;3627;46.544;14.944;2022-08-25T09:14:40;6.10;;;3.92;;
7171;SDS011;3627;46.544;14.944;2022-08-25T09:17:12;5.50;;;3.55;;
7171;SDS011;3627;46.544;14.944;2022-08-25T09:22:27;4.90;;;4.35;;
7171;SDS011;3627;46.544;14.944;2022-08-25T09:24:56;4.95;;;4.45;;
7171;SDS011;3627;46.544;14.944;2022-08-25T09:27:26;5.97;;;4.47;;
7171;SDS011;3627;46.544;14.944;2022-08-25T09:29:59;4.57;;;4.13;;
7171;SDS011;3627;46.544;14.944;2022-08-25T09:32:27;6.22;;;4.53;;
7171;SDS011;3627;46.544;14.944;2022-08-25T09:34:53;5.82;;;4.55;;
7171;SDS011;3627;46.544;14.944;2022-08-25T09:37:20;4.57;;;4.18;;
7171;SDS011;3627;46.544;14.944;2022-08-25T09:39:50;6.00;;;4.10;;
7171;SDS011;3627;46.544;14.944;2022-08-25T09:42:20;5.28;;;4.28;;
7171;SDS011;3627;46.544;14.944;2022-08-25T09:44:47;7.00;;;4.43;;
7171;SDS011;3627;46.544;14.944;2022-08-25T09:47:18;5.53;;;4.75;;
7171;SDS011;3627;46.544;14.944;2022-08-25T09:49:46;5.28;;;4.30;;
7171;SDS011;3627;46.544;14.944;2022-08-25T09:52:20;5.28;;;4.68;;
7171;SDS011;3627;46.544;14.944;2022-08-25T09:54:47;6.75;;;5.13;;
7171;SDS011;3627;46.544;14.944;2022-08-25T09:57:27;5.63;;;4.55;;
7171;SDS011;3627;46.544;14.944;2022-08-25T09:59:54;6.10;;;4.80;;
7171;SDS011;3627;46.544;14.944;2022-08-25T10:02:22;7.10;;;4.55;;
7171;SDS011;3627;46.544;14.944;2022-08-25T10:04:49;6.10;;;4.43;;
7171;SDS011;3627;46.544;14.944;2022-08-25T10:07:20;5.75;;;4.65;;
7171;SDS011;3627;46.544;14.944;2022-08-25T10:09:50;6.68;;;4.85;;
7171;SDS011;3627;46.544;14.944;2022-08-25T10:12:17;5.57;;;4.90;;
7171;SDS011;3627;46.544;14.944;2022-08-25T10:14:46;5.38;;;4.72;;
7171;SDS011;3627;46.544;14.944;2022-08-25T10:17:15;9.75;;;5.05;;
7171;SDS011;3627;46.544;14.944;2022-08-25T10:19:48;5.93;;;5.05;;
7171;SDS011;3627;46.544;14.944;2022-08-25T10:22:20;6.45;;;4.63;;
7171;SDS011;3627;46.544;14.944;2022-08-25T10:24:48;5.47;;;4.88;;
7171;SDS011;3627;46.544;14.944;2022-08-25T10:27:17;6.38;;;4.85;;
7171;SDS011;3627;46.544;14.944;2022-08-25T10:32:46;5.15;;;4.28;;
7171;SDS011;3627;46.544;14.944;2022-08-25T10:35:16;6.40;;;4.65;;
7171;SDS011;3627;46.544;14.944;2022-08-25T10:37:50;7.68;;;4.78;;
7171;SDS011;3627;46.544;14.944;2022-08-25T10:40:21;7.32;;;4.75;;
7171;SDS011;3627;46.544;14.944;2022-08-25T10:42:56;7.75;;;5.03;;
7171;SDS011;3627;46.544;14.944;2022-08-25T10:45:27;6.63;;;4.85;;
7171;SDS011;3627;46.544;14.944;2022-08-25T10:48:23;5.90;;;4.97;;
7171;SDS011;3627;46.544;14.944;2022-08-25T10:50:52;5.70;;;5.05;;
7171;SDS011;3627;46.544;14.944;2022-08-25T10:53:22;6.53;;;5.82;;
7171;SDS011;3627;46.544;14.944;2022-08-25T10:55:54;8.27;;;4.97;;
7171;SDS011;3627;46.544;14.944;2022-08-25T10:58:27;6.57;;;5.25;;
7171;SDS011;3627;46.544;14.944;2022-08-25T11:00:58;7.40;;;5.25;;
7171;SDS011;3627;46.544;14.944;2022-08-25T11:03:32;9.52;;;5.50;;
7171;SDS011;3627;46.544;14.944;2022-08-25T11:06:01;6.13;;;4.68;;
7171;SDS011;3627;46.544;14.944;2022-08-25T11:08:31;6.72;;;4.97;;
7171;SDS011;3627;46.544;14.944;2022-08-25T11:11:01;6.55;;;4.72;;
7171;SDS011;3627;46.544;14.944;2022-08-25T11:13:35;6.72;;;4.72;;
7171;SDS011;3627;46.544;14.944;2022-08-25T11:16:05;5.53;;;5.00;;
7171;SDS011;3627;46.544;14.944;2022-08-25T11:18:36;8.07;;;4.95;;
7171;SDS011;3627;46.544;14.944;2022-08-25T11:21:05;5.38;;;4.85;;
7171;SDS011;3627;46.544;14.944;2022-08-25T11:23:34;10.27;;;5.30;;
7171;SDS011;3627;46.544;14.944;2022-08-25T11:26:03;6.50;;;4.90;;
7171;SDS011;3627;46.544;14.944;2022-08-25T11:28:34;6.20;;;5.32;;
7171;SDS011;3627;46.544;14.944;2022-08-25T11:31:02;6.28;;;4.78;;
7171;SDS011;3627;46.544;14.944;2022-08-25T11:33:30;6.22;;;4.82;;
7171;SDS011;3627;46.544;14.944;2022-08-25T11:35:59;6.70;;;5.60;;
7171;SDS011;3627;46.544;14.944;2022-08-25T11:38:31;9.05;;;4.70;;
7171;SDS011;3627;46.544;14.944;2022-08-25T11:41:09;6.88;;;4.63;;
7171;SDS011;3627;46.544;14.944;2022-08-25T11:43:43;6.47;;;4.85;;
7171;SDS011;3627;46.544;14.944;2022-08-25T11:46:17;6.03;;;4.65;;
7171;SDS011;3627;46.544;14.944;2022-08-25T11:48:51;6.63;;;5.05;;
7171;SDS011;3627;46.544;14.944;2022-08-25T11:51:28;10.10;;;5.30;;
7171;SDS011;3627;46.544;14.944;2022-08-25T11:54:17;5.95;;;5.32;;
7171;SDS011;3627;46.544;14.944;2022-08-25T11:56:52;6.88;;;5.68;;
7171;SDS011;3627;46.544;14.944;2022-08-25T12:02:03;7.05;;;4.82;;
7171;SDS011;3627;46.544;14.944;2022-08-25T12:04:31;7.35;;;5.25;;
7171;SDS011;3627;46.544;14.944;2022-08-25T12:07:16;6.20;;;5.03;;
7171;SDS011;3627;46.544;14.944;2022-08-25T12:12:28;8.07;;;5.18;;
7171;SDS011;3627;46.544;14.944;2022-08-25T12:14:56;12.27;;;5.80;;
7171;SDS011;3627;46.544;14.944;2022-08-25T12:17:38;6.30;;;4.70;;
7171;SDS011;3627;46.544;14.944;2022-08-25T12:20:05;10.10;;;4.85;;
7171;SDS011;3627;46.544;14.944;2022-08-25T12:25:22;8.55;;;4.65;;
7171;SDS011;3627;46.544;14.944;2022-08-25T12:27:56;9.00;;;5.32;;
7171;SDS011;3627;46.544;14.944;2022-08-25T12:30:25;7.47;;;5.18;;
7171;SDS011;3627;46.544;14.944;2022-08-25T12:32:56;7.28;;;5.07;;
7171;SDS011;3627;46.544;14.944;2022-08-25T12:35:26;7.28;;;4.43;;
7171;SDS011;3627;46.544;14.944;2022-08-25T12:37:55;6.22;;;4.28;;
7171;SDS011;3627;46.544;14.944;2022-08-25T12:40:25;6.40;;;4.75;;
7171;SDS011;3627;46.544;14.944;2022-08-25T12:42:59;6.03;;;4.82;;
7171;SDS011;3627;46.544;14.944;2022-08-25T12:45:32;6.75;;;5.22;;
7171;SDS011;3627;46.544;14.944;2022-08-25T12:50:40;6.55;;;4.90;;
7171;SDS011;3627;46.544;14.944;2022-08-25T12:53:09;7.25;;;5.25;;
7171;SDS011;3627;46.544;14.944;2022-08-25T12:55:38;10.20;;;4.75;;
7171;SDS011;3627;46.544;14.944;2022-08-25T12:58:05;7.10;;;5.13;;
7171;SDS011;3627;46.544;14.944;2022-08-25T13:00:34;7.88;;;5.20;;
7171;SDS011;3627;46.544;14.944;2022-08-25T13:05:46;7.43;;;5.32;;
7171;SDS011;3627;46.544;14.944;2022-08-25T13:08:35;6.43;;;4.50;;
7171;SDS011;3627;46.544;14.944;2022-08-25T13:11:08;9.40;;;5.13;;
7171;SDS011;3627;46.544;14.944;2022-08-25T13:13:37;6.45;;;4.70;;
7171;SDS011;3627;46.544;14.944;2022-08-25T13:16:06;10.05;;;5.22;;
7171;SDS011;3627;46.544;14.944;2022-08-25T13:18:34;6.75;;;4.85;;
7171;SDS011;3627;46.544;14.944;2022-08-25T13:21:02;9.35;;;5.30;;
7171;SDS011;3627;46.544;14.944;2022-08-25T13:23:30;6.35;;;4.55;;
7171;SDS011;3627;46.544;14.944;2022-08-25T13:25:59;6.88;;;5.50;;
7171;SDS011;3627;46.544;14.944;2022-08-25T13:28:28;9.05;;;4.82;;
7171;SDS011;3627;46.544;14.944;2022-08-25T13:30:56;8.68;;;4.82;;
7171;SDS011;3627;46.544;14.944;2022-08-25T13:33:23;10.18;;;5.75;;
7171;SDS011;3627;46.544;14.944;2022-08-25T13:35:51;6.60;;;4.50;;
7171;SDS011;3627;46.544;14.944;2022-08-25T13:38:39;7.47;;;4.95;;
7171;SDS011;3627;46.544;14.944;2022-08-25T13:41:05;7.25;;;4.85;;
7171;SDS011;3627;46.544;14.944;2022-08-25T13:43:33;7.35;;;4.55;;
7171;SDS011;3627;46.544;14.944;2022-08-25T13:46:00;6.95;;;4.65;;
7171;SDS011;3627;46.544;14.944;2022-08-25T13:48:30;5.80;;;4.47;;
7171;SDS011;3627;46.544;14.944;2022-08-25T13:51:02;6.43;;;5.00;;
7171;SDS011;3627;46.544;14.944;2022-08-25T13:53:31;7.75;;;4.88;;
7171;SDS011;3627;46.544;14.944;2022-08-25T13:55:58;6.15;;;5.15;;
7171;SDS011;3627;46.544;14.944;2022-08-25T13:58:26;9.43;;;5.22;;
7171;SDS011;3627;46.544;14.944;2022-08-25T14:01:02;9.60;;;5.43;;
7171;SDS011;3627;46.544;14.944;2022-08-25T14:03:32;7.03;;;4.53;;
7171;SDS011;3627;46.544;14.944;2022-08-25T14:06:03;7.70;;;4.93;;
7171;SDS011;3627;46.544;14.944;2022-08-25T14:08:31;7.70;;;4.55;;
7171;SDS011;3627;46.544;14.944;2022-08-25T14:11:01;8.88;;;5.00;;
7171;SDS011;3627;46.544;14.944;2022-08-25T14:13:29;6.47;;;4.65;;
7171;SDS011;3627;46.544;14.944;2022-08-25T14:16:06;8.80;;;5.38;;
7171;SDS011;3627;46.544;14.944;2022-08-25T14:18:33;9.80;;;5.68;;
7171;SDS011;3627;46.544;14.944;2022-08-25T14:20:59;7.35;;;4.80;;
7171;SDS011;3627;46.544;14.944;2022-08-25T14:23:32;10.50;;;5.50;;
7171;SDS011;3627;46.544;14.944;2022-08-25T14:26:00;7.18;;;5.30;;
7171;SDS011;3627;46.544;14.944;2022-08-25T14:28:27;9.13;;;5.30;;
7171;SDS011;3627;46.544;14.944;2022-08-25T14:30:54;11.60;;;5.53;;
7171;SDS011;3627;46.544;14.944;2022-08-25T14:33:27;10.02;;;5.30;;
7171;SDS011;3627;46.544;14.944;2022-08-25T14:35:54;10.43;;;5.68;;
7171;SDS011;3627;46.544;14.944;2022-08-25T14:38:22;9.65;;;5.22;;
7171;SDS011;3627;46.544;14.944;2022-08-25T14:40:49;7.10;;;5.15;;
7171;SDS011;3627;46.544;14.944;2022-08-25T14:43:16;6.75;;;4.68;;
7171;SDS011;3627;46.544;14.944;2022-08-25T14:45:44;8.85;;;5.35;;
7171;SDS011;3627;46.544;14.944;2022-08-25T14:48:13;7.28;;;5.43;;
7171;SDS011;3627;46.544;14.944;2022-08-25T14:50:42;7.53;;;4.97;;
7171;SDS011;3627;46.544;14.944;2022-08-25T14:53:09;8.38;;;5.60;;
7171;SDS011;3627;46.544;14.944;2022-08-25T14:55:36;10.40;;;5.05;;
7171;SDS011;3627;46.544;14.944;2022-08-25T14:58:02;6.57;;;5.43;;
7171;SDS011;3627;46.544;14.944;2022-08-25T15:00:29;10.98;;;5.20;;
7171;SDS011;3627;46.544;14.944;2022-08-25T15:02:55;6.88;;;5.18;;
7171;SDS011;3627;46.544;14.944;2022-08-25T15:05:23;8.77;;;5.60;;
7171;SDS011;3627;46.544;14.944;2022-08-25T15:07:52;8.43;;;5.55;;
7171;SDS011;3627;46.544;14.944;2022-08-25T15:10:37;8.10;;;5.65;;
7171;SDS011;3627;46.544;14.944;2022-08-25T15:13:04;7.30;;;5.57;;
7171;SDS011;3627;46.544;14.944;2022-08-25T15:15:31;7.93;;;5.30;;
7171;SDS011;3627;46.544;14.944;2022-08-25T15:17:57;8.52;;;5.40;;
7171;SDS011;3627;46.544;14.944;2022-08-25T15:20:23;5.72;;;5.15;;
7171;SDS011;3627;46.544;14.944;2022-08-25T15:22:50;9.95;;;5.15;;
7171;SDS011;3627;46.544;14.944;2022-08-25T15:25:17;5.63;;;4.80;;